Time;durP1;ratioP1;P1;durP2;ratioP2;P2;SDS_P1;SDS_P2;PMS_P1;PMS_P2;Temp;Humidity;BMP_temperature;BMP_pressure;BME280_temperature;BME280_humidity;BME280_pressure;Samples;Min_cycle;Max_cycle;Signal;HPM_P1;HPM_P2
2023/10/14 00:01:46;;;;;;;1999.90;999.90;;;;;;;15.80;100.00;94892.16;5064154;28;20173;-51
2023/10/14 00:04:11;;;;;;;1999.90;999.90;;;;;;;15.89;100.00;94887.47;5063663;28;20169;-49
2023/10/14 00:06:41;;;;;;;1999.90;999.90;;;;;;;15.94;100.00;94883.38;5063807;28;20375;-47
2023/10/14 00:09:13;;;;;;;1999.90;999.90;;;;;;;15.90;100.00;94882.75;5063541;28;20197;-49
2023/10/14 00:11:51;;;;;;;1999.90;999.90;;;;;;;15.96;100.00;94878.97;5065852;28;20158;-47
2023/10/14 00:14:17;;;;;;;1999.90;999.90;;;;;;;15.98;100.00;94876.53;5068090;28;20157;-48
2023/10/14 00:16:49;;;;;;;1999.90;999.90;;;;;;;16.01;100.00;94866.59;5067439;28;20193;-49
2023/10/14 00:19:15;;;;;;;1999.90;999.90;;;;;;;15.98;100.00;94873.00;5068392;28;20170;-47
2023/10/14 00:21:42;;;;;;;1999.90;999.90;;;;;;;15.97;100.00;94871.47;5067545;28;20193;-46
2023/10/14 00:24:08;;;;;;;1999.90;999.90;;;;;;;15.89;100.00;94875.72;5067164;28;20162;-48
2023/10/14 00:26:34;;;;;;;1999.90;999.90;;;;;;;15.90;100.00;94878.03;5067312;28;20162;-47
2023/10/14 00:31:46;;;;;;;1999.90;999.90;;;;;;;15.82;100.00;94879.50;5068368;28;20172;-46
2023/10/14 00:34:14;;;;;;;1999.90;999.90;;;;;;;15.77;100.00;94877.31;5067601;28;20162;-48
2023/10/14 00:36:39;;;;;;;1999.90;999.90;;;;;;;15.79;100.00;94871.34;5067129;28;20190;-46
2023/10/14 00:39:12;;;;;;;1999.90;999.90;;;;;;;15.79;100.00;94872.13;5067182;28;20162;-49
2023/10/14 00:41:44;;;;;;;1999.90;999.90;;;;;;;15.89;100.00;94868.19;5067665;28;20161;-46
2023/10/14 00:44:11;;;;;;;1999.90;999.90;;;;;;;15.90;100.00;94867.00;5067367;28;20158;-50
2023/10/14 00:46:42;;;;;;;1999.90;999.90;;;;;;;15.98;100.00;94873.00;5067115;28;20154;-45
2023/10/14 00:49:10;;;;;;;1999.90;999.90;;;;;;;15.95;100.00;94869.16;5067523;28;20159;-46
2023/10/14 00:51:42;;;;;;;1999.90;999.90;;;;;;;15.93;100.00;94852.34;5067005;28;20240;-50
2023/10/14 00:54:10;;;;;;;1999.90;999.90;;;;;;;15.95;100.00;94851.84;5067358;28;20158;-49
2023/10/14 00:56:40;;;;;;;1999.90;999.90;;;;;;;15.91;100.00;94863.03;5066481;28;20190;-48
2023/10/14 00:59:06;;;;;;;1999.90;999.90;;;;;;;15.90;100.00;94860.72;5067287;28;20165;-48
2023/10/14 01:01:32;;;;;;;1999.90;999.90;;;;;;;15.91;100.00;94854.75;5066835;28;20245;-46
2023/10/14 01:04:18;;;;;;;1999.90;999.90;;;;;;;15.86;100.00;94855.34;5067171;28;20158;-46
2023/10/14 01:06:55;;;;;;;1999.90;999.90;;;;;;;15.81;100.00;94850.41;5066451;28;20209;-46
2023/10/14 01:09:22;;;;;;;1999.90;999.90;;;;;;;15.81;100.00;94847.66;5067158;28;20166;-48
2023/10/14 01:11:48;;;;;;;1999.90;999.90;;;;;;;15.76;100.00;94867.53;5066602;28;20161;-49
2023/10/14 01:14:17;;;;;;;1999.90;999.90;;;;;;;15.68;100.00;94871.75;5066553;28;20173;-49
2023/10/14 01:16:46;;;;;;;1999.90;999.90;;;;;;;15.59;100.00;94862.66;5066328;28;20197;-47
2023/10/14 01:19:15;;;;;;;1999.90;999.90;;;;;;;15.52;100.00;94858.16;5066126;28;20185;-49
2023/10/14 01:21:41;;;;;;;1999.90;999.90;;;;;;;15.48;100.00;94857.53;5066723;28;20336;-46
2023/10/14 01:24:15;;;;;;;1999.90;999.90;;;;;;;15.43;100.00;94849.84;5066752;28;20259;-48
2023/10/14 01:26:51;;;;;;;1999.90;999.90;;;;;;;15.38;100.00;94846.91;5066827;28;20163;-46
2023/10/14 01:29:21;;;;;;;1999.90;999.90;;;;;;;15.33;100.00;94847.44;5066720;28;20154;-48
2023/10/14 01:32:10;;;;;;;1999.90;999.90;;;;;;;15.33;100.00;94856.47;5066687;28;20154;-47
2023/10/14 01:34:42;;;;;;;1999.90;999.90;;;;;;;15.34;100.00;94852.50;5066028;28;20474;-47
2023/10/14 01:37:15;;;;;;;1999.90;999.90;;;;;;;15.35;100.00;94848.56;5066589;28;20241;-49
2023/10/14 01:39:48;;;;;;;1999.90;999.90;;;;;;;15.34;100.00;94844.22;5066817;28;20158;-46
2023/10/14 01:42:14;;;;;;;1999.90;999.90;;;;;;;15.37;100.00;94851.63;5066560;28;20162;-46
2023/10/14 01:44:41;;;;;;;1999.90;999.90;;;;;;;15.42;100.00;94834.56;5065945;28;20169;-46
2023/10/14 01:47:07;;;;;;;1999.90;999.90;;;;;;;15.44;100.00;94845.88;5066315;28;20158;-46
2023/10/14 01:49:35;;;;;;;1999.90;999.90;;;;;;;15.47;100.00;94838.69;5065480;28;20162;-46
2023/10/14 01:52:00;;;;;;;1999.90;999.90;;;;;;;15.48;100.00;94841.00;5066261;28;20165;-47
2023/10/14 01:54:27;;;;;;;1999.90;999.90;;;;;;;15.49;100.00;94830.78;5065742;28;20162;-47
2023/10/14 01:56:54;;;;;;;1999.90;999.90;;;;;;;15.51;100.00;94833.84;5065495;28;20190;-46
2023/10/14 01:59:23;;;;;;;1999.90;999.90;;;;;;;15.52;100.00;94819.63;5066435;28;20194;-47
2023/10/14 02:01:48;;;;;;;1999.90;999.90;;;;;;;15.50;100.00;94822.09;5066093;28;20196;-48
2023/10/14 02:04:15;;;;;;;1999.90;999.90;;;;;;;15.53;100.00;94814.91;5066060;28;20166;-50
2023/10/14 02:06:45;;;;;;;1999.90;999.90;;;;;;;15.52;100.00;94819.63;5065249;28;20606;-48
2023/10/14 02:09:11;;;;;;;1999.90;999.90;;;;;;;15.54;100.00;94821.94;5065443;28;20451;-47
2023/10/14 02:11:36;;;;;;;1999.90;999.90;;;;;;;15.56;100.00;94817.50;5065406;28;20196;-46
2023/10/14 02:14:12;;;;;;;1999.90;999.90;;;;;;;15.59;100.00;94819.38;5065892;28;20169;-47
2023/10/14 02:16:46;;;;;;;1999.90;999.90;;;;;;;15.61;100.00;94816.94;5065690;28;20193;-51
2023/10/14 02:21:46;;;;;;;1999.90;999.90;;;;;;;15.59;100.00;94810.38;5066333;28;20142;-53
2023/10/14 02:24:12;;;;;;;1999.90;999.90;;;;;;;15.61;100.00;94810.66;5065169;28;20193;-48
2023/10/14 02:26:38;;;;;;;1999.90;999.90;;;;;;;15.59;100.00;94822.13;5065029;28;20158;-52
2023/10/14 02:29:10;;;;;;;1999.90;999.90;;;;;;;15.63;100.00;94825.50;5065646;28;20165;-50
2023/10/14 02:31:36;;;;;;;1999.90;999.90;;;;;;;15.61;100.00;94816.94;5065544;28;20164;-48
2023/10/14 02:34:09;;;;;;;1999.90;999.90;;;;;;;15.61;100.00;94819.72;5064353;28;20190;-49
2023/10/14 02:36:36;;;;;;;1999.90;999.90;;;;;;;15.62;100.00;94817.69;5065138;28;20189;-50
2023/10/14 02:39:14;;;;;;;1999.90;999.90;;;;;;;15.60;100.00;94820.94;5064941;28;20185;-48
2023/10/14 02:41:44;;;;;;;1999.90;999.90;;;;;;;15.61;100.00;94827.97;5065621;28;20162;-52
2023/10/14 02:46:46;;;;;;;1999.90;999.90;;;;;;;15.61;100.00;94822.47;5065749;28;20185;-49
2023/10/14 02:49:14;;;;;;;1999.90;999.90;;;;;;;15.64;100.00;94824.31;5064759;28;20189;-47
2023/10/14 02:51:44;;;;;;;1999.90;999.90;;;;;;;15.72;100.00;94833.06;5065078;28;20157;-49
2023/10/14 02:54:26;;;;;;;1999.90;999.90;;;;;;;15.75;100.00;94816.44;5065241;28;20158;-49
2023/10/14 02:59:36;;;;;;;1999.90;999.90;;;;;;;15.82;100.00;94816.16;5065568;28;20181;-51
2023/10/14 03:02:15;;;;;;;1999.90;999.90;;;;;;;15.88;100.00;94819.84;5065256;28;20153;-48
2023/10/14 03:05:32;;;;;;;1999.90;999.90;;;;;;;15.95;100.00;94811.31;5064928;28;20153;-48
2023/10/14 03:07:33;;;;;;;1999.90;999.90;;;;;;;16.00;100.00;94807.97;5054393;28;20213;-49
2023/10/14 03:10:12;;;;;;;1999.90;999.90;;;;;;;16.03;100.00;94809.81;5064353;28;20158;-52
2023/10/14 03:12:39;;;;;;;1999.90;999.90;;;;;;;16.13;100.00;94808.66;5064756;28;20180;-48
2023/10/14 03:15:19;;;;;;;1999.90;999.90;;;;;;;16.17;100.00;94814.78;5064644;28;20184;-50
2023/10/14 03:18:04;;;;;;;1999.90;999.90;;;;;;;16.18;100.00;94810.81;5064611;28;20169;-47
2023/10/14 03:23:23;;;;;;;1999.90;999.90;;;;;;;16.23;100.00;94820.47;5065166;28;20153;-48
2023/10/14 03:26:10;;;;;;;1999.90;999.90;;;;;;;16.22;100.00;94825.22;5064858;28;20185;-46
2023/10/14 03:28:37;;;;;;;1999.90;999.90;;;;;;;16.19;100.00;94817.88;5064498;28;20161;-49
2023/10/14 03:31:07;;;;;;;1999.90;999.90;;;;;;;16.18;100.00;94810.06;5063993;28;20159;-49
2023/10/14 03:33:42;;;;;;;1999.90;999.90;;;;;;;16.16;100.00;94816.03;5064302;28;20158;-49
2023/10/14 03:36:08;;;;;;;1999.90;999.90;;;;;;;16.16;100.00;94818.78;5064477;28;20398;-49
2023/10/14 03:41:10;;;;;;;1999.90;999.90;;;;;;;16.20;100.00;94808.38;5064878;28;20155;-49
2023/10/14 03:44:23;;;;;;;1999.90;999.90;;;;;;;16.31;100.00;94814.25;5064635;28;20180;-50
2023/10/14 03:46:35;;;;;;;1999.90;999.90;;;;;;;16.59;100.00;94815.13;5057517;28;20200;-50
2023/10/14 03:49:12;;;;;;;1999.90;999.90;;;;;;;16.86;100.00;94809.66;5063832;28;20176;-49
2023/10/14 03:51:38;;;;;;;1999.90;999.90;;;;;;;17.16;100.00;94816.28;5063549;28;20185;-49
2023/10/14 03:54:12;;;;;;;1999.90;999.90;;;;;;;17.36;100.00;94806.31;5064157;28;20158;-51
2023/10/14 03:56:43;;;;;;;1999.90;999.90;;;;;;;17.67;100.00;94811.69;5064057;28;20192;-47
2023/10/14 03:59:12;;;;;;;1999.90;999.90;;;;;;;17.88;100.00;94813.47;5064207;28;20160;-50
2023/10/14 04:04:19;;;;;;;1999.90;999.90;;;;;;;18.14;100.00;94807.09;5064661;28;20158;-49
2023/10/14 04:09:44;;;;;;;1999.90;999.90;;;;;;;18.58;100.00;94807.41;5064602;28;20146;-48
2023/10/14 04:14:55;;;;;;;1999.90;999.90;;;;;;;18.85;100.00;94805.25;5064516;28;20192;-48
2023/10/14 04:17:22;;;;;;;1999.90;999.90;;;;;;;19.09;100.00;94808.03;5063539;28;20169;-50
2023/10/14 04:19:53;;;;;;;1999.90;999.90;;;;;;;19.13;100.00;94797.53;5063951;28;20167;-52
2023/10/14 04:22:32;;;;;;;1999.90;999.90;;;;;;;19.19;100.00;94795.63;5063991;28;20213;-53
2023/10/14 04:25:16;;;;;;;1999.90;999.90;;;;;;;19.19;100.00;94801.94;5063980;28;20176;-50
2023/10/14 04:27:54;;;;;;;1999.90;999.90;;;;;;;19.22;100.00;94806.53;5064039;28;20162;-49
2023/10/14 04:33:04;;;;;;;1999.90;999.90;;;;;;;19.34;100.00;94802.75;5064409;28;20154;-46
2023/10/14 04:35:36;;;;;;;1999.90;999.90;;;;;;;19.44;100.00;94800.69;5063778;28;20193;-50
2023/10/14 04:38:03;;;;;;;1999.90;999.90;;;;;;;19.51;100.00;94794.78;5063344;28;20212;-48
2023/10/14 04:45:45;;;;;;;1999.90;999.90;;;;;;;19.58;100.00;94794.41;5064362;28;20154;-53
2023/10/14 04:48:13;;;;;;;1999.90;999.90;;;;;;;19.53;100.00;94781.97;5063957;28;20166;-50
2023/10/14 04:50:41;;;;;;;1999.90;999.90;;;;;;;19.60;100.00;94786.38;5063752;28;20162;-48
2023/10/14 04:53:07;;;;;;;1999.90;999.90;;;;;;;19.62;100.00;94783.91;5063194;28;20165;-47
2023/10/14 04:55:42;;;;;;;1999.90;999.90;;;;;;;19.62;100.00;94785.91;5063335;28;20193;-50
2023/10/14 05:00:49;;;;;;;1999.90;999.90;;;;;;;19.61;100.00;94779.59;5067735;28;20215;-50
2023/10/14 05:03:18;;;;;;;1999.90;999.90;;;;;;;19.64;100.00;94786.97;5067219;28;20165;-50
2023/10/14 05:05:49;;;;;;;1999.90;999.90;;;;;;;19.69;100.00;94783.53;5066486;28;20237;-47
2023/10/14 05:08:21;;;;;;;1999.90;999.90;;;;;;;19.67;100.00;94774.16;5066545;28;20162;-47
2023/10/14 05:10:50;;;;;;;1999.90;999.90;;;;;;;19.71;100.00;94775.50;5066886;28;20241;-47
2023/10/14 05:13:16;;;;;;;1999.90;999.90;;;;;;;19.69;100.00;94764.13;5066949;28;20165;-47
2023/10/14 05:15:43;;;;;;;1999.90;999.90;;;;;;;19.70;100.00;94760.09;5066406;28;20204;-48
2023/10/14 05:18:16;;;;;;;1999.90;999.90;;;;;;;19.79;100.00;94771.13;5066492;28;20244;-50
2023/10/14 05:23:24;;;;;;;1999.90;999.90;;;;;;;19.75;100.00;94765.00;5067352;28;20151;-51
2023/10/14 05:25:56;;;;;;;1999.90;999.90;;;;;;;19.86;100.00;94769.94;5066247;28;20183;-51
2023/10/14 05:28:35;;;;;;;1999.90;999.90;;;;;;;19.84;100.00;94767.66;5066780;28;20162;-47
2023/10/14 05:31:08;;;;;;;1999.90;999.90;;;;;;;19.81;100.00;94763.06;5066756;28;20162;-50
2023/10/14 05:33:34;;;;;;;1999.90;999.90;;;;;;;19.87;100.00;94771.47;5066587;28;20181;-49
2023/10/14 05:36:03;;;;;;;1999.90;999.90;;;;;;;19.87;100.00;94772.25;5066083;28;20217;-49
2023/10/14 05:38:29;;;;;;;1999.90;999.90;;;;;;;19.91;100.00;94772.81;5065707;28;20166;-49
2023/10/14 05:40:58;;;;;;;1999.90;999.90;;;;;;;19.93;100.00;94775.13;5066513;28;20230;-52
2023/10/14 05:43:24;;;;;;;1999.90;999.90;;;;;;;19.80;100.00;94767.09;5065896;28;20173;-51
2023/10/14 05:45:51;;;;;;;1999.90;999.90;;;;;;;19.91;100.00;94789.44;5066414;28;20166;-48
2023/10/14 05:48:17;;;;;;;1999.90;999.90;;;;;;;19.87;100.00;94788.88;5066425;28;20162;-49
2023/10/14 05:50:43;;;;;;;1999.90;999.90;;;;;;;19.83;100.00;94788.31;5066404;28;20243;-54
2023/10/14 05:53:08;;;;;;;1999.90;999.90;;;;;;;19.80;100.00;94794.81;5065692;28;20166;-47
2023/10/14 05:55:34;;;;;;;1999.90;999.90;;;;;;;19.94;100.00;94794.03;5066124;28;20192;-52
2023/10/14 05:58:00;;;;;;;1999.90;999.90;;;;;;;19.86;100.00;94787.38;5065526;28;20257;-49
2023/10/14 06:00:27;;;;;;;1999.90;999.90;;;;;;;19.90;100.00;94782.38;5066115;28;20224;-49
2023/10/14 06:02:55;;;;;;;1999.90;999.90;;;;;;;19.96;100.00;94780.47;5066041;28;20200;-48
2023/10/14 06:05:22;;;;;;;1999.90;999.90;;;;;;;20.01;100.00;94793.66;5065529;28;20232;-50
2023/10/14 06:07:47;;;;;;;1999.90;999.90;;;;;;;20.09;100.00;94794.81;5065001;28;20252;-48
2023/10/14 06:10:20;;;;;;;1999.90;999.90;;;;;;;20.22;100.00;94789.75;5064316;28;20169;-51
2023/10/14 06:12:46;;;;;;;1999.90;999.90;;;;;;;20.44;100.00;94798.44;5065797;28;20161;-50
2023/10/14 06:15:12;;;;;;;1999.90;999.90;;;;;;;20.31;100.00;94792.41;5065756;28;20186;-49
2023/10/14 06:17:38;;;;;;;1999.90;999.90;;;;;;;20.25;100.00;94797.09;5065190;28;20212;-48
2023/10/14 06:20:07;;;;;;;1999.90;999.90;;;;;;;20.07;100.00;94786.19;5065546;28;20166;-54
2023/10/14 06:22:33;;;;;;;1999.90;999.90;;;;;;;20.05;100.00;94793.47;5065594;28;20216;-50
2023/10/14 06:24:58;;;;;;;1999.90;999.90;;;;;;;20.04;100.00;94817.66;5065029;28;20166;-48
2023/10/14 06:27:24;;;;;;;1999.90;999.90;;;;;;;19.98;100.00;94816.78;5065902;28;20169;-53
2023/10/14 06:29:50;;;;;;;1999.90;999.90;;;;;;;20.02;100.00;94811.81;5064949;28;20168;-50
2023/10/14 06:32:16;;;;;;;1999.90;999.90;;;;;;;20.01;100.00;94812.28;5065516;28;20181;-51
2023/10/14 06:34:42;;;;;;;1999.90;999.90;;;;;;;20.07;100.00;94825.00;5065182;28;20189;-49
2023/10/14 06:37:07;;;;;;;1999.90;999.90;;;;;;;20.06;100.00;94812.41;5065425;28;20197;-51
2023/10/14 06:39:39;;;;;;;1999.90;999.90;;;;;;;20.13;100.00;94834.22;5064844;28;20245;-49
2023/10/14 06:42:05;;;;;;;1999.90;999.90;;;;;;;20.17;100.00;94834.78;5065407;28;20157;-52
2023/10/14 06:44:32;;;;;;;1999.90;999.90;;;;;;;20.19;100.00;94837.88;5065429;28;20227;-51
2023/10/14 06:46:58;;;;;;;1999.90;999.90;;;;;;;20.17;100.00;94834.78;5064720;28;20170;-52
2023/10/14 06:49:32;;;;;;;1999.90;999.90;;;;;;;20.13;100.00;94839.78;5064743;28;20196;-49
2023/10/14 06:51:58;;;;;;;1999.90;999.90;;;;;;;20.16;100.00;94849.91;5065201;28;20165;-50
2023/10/14 06:54:26;;;;;;;1999.90;999.90;;;;;;;20.08;100.00;94854.28;5064458;28;20185;-51
2023/10/14 06:56:53;;;;;;;1999.90;999.90;;;;;;;20.17;100.00;94848.66;5064771;28;20315;-51
2023/10/14 06:59:19;;;;;;;1999.90;999.90;;;;;;;20.14;100.00;94866.25;5064967;28;20162;-51
2023/10/14 07:01:44;;;;;;;1999.90;999.90;;;;;;;20.20;100.00;94864.34;5065010;28;20200;-50
2023/10/14 07:04:12;;;;;;;1999.90;999.90;;;;;;;20.21;100.00;94860.31;5064434;28;20158;-50
2023/10/14 07:06:38;;;;;;;1999.90;999.90;;;;;;;20.29;100.00;94875.34;5064260;28;20240;-49
2023/10/14 07:09:08;;;;;;;1999.90;999.90;;;;;;;20.38;100.00;94875.25;5064300;28;20186;-52
2023/10/14 07:11:34;;;;;;;1999.90;999.90;;;;;;;20.45;100.00;94877.63;5063986;28;20149;-49
2023/10/14 07:13:59;;;;;;;1999.90;999.90;;;;;;;20.48;100.00;94890.56;5064291;28;20238;-49
2023/10/14 07:16:24;;;;;;;1999.90;999.90;;;;;;;20.45;100.00;94887.97;5064090;28;20190;-50
2023/10/14 07:18:50;;;;;;;1999.90;999.90;;;;;;;20.38;100.00;94883.56;5064099;28;20196;-47
2023/10/14 07:21:15;;;;;;;1999.90;999.90;;;;;;;20.43;100.00;94885.66;5063799;28;20162;-48
2023/10/14 07:23:41;;;;;;;1999.90;999.90;;;;;;;20.42;100.00;94884.13;5063954;28;20280;-52
2023/10/14 07:26:11;;;;;;;1999.90;999.90;;;;;;;20.37;100.00;94889.59;5064786;28;20158;-47
2023/10/14 07:28:42;;;;;;;1999.90;999.90;;;;;;;20.41;100.00;94887.41;5064024;28;20189;-52
2023/10/14 07:31:11;;;;;;;1999.90;999.90;;;;;;;20.32;100.00;94891.03;5064395;28;20158;-52
2023/10/14 07:33:38;;;;;;;1999.90;999.90;;;;;;;20.31;100.00;94881.19;5063892;28;20157;-47
2023/10/14 07:36:06;;;;;;;1999.90;999.90;;;;;;;20.43;100.00;94880.13;5064326;28;20460;-53
2023/10/14 07:38:33;;;;;;;1999.90;999.90;;;;;;;20.64;100.00;94883.72;5064370;28;20188;-49
2023/10/14 07:41:01;;;;;;;1999.90;999.90;;;;;;;20.78;100.00;94889.28;5064289;28;20362;-49
2023/10/14 07:43:26;;;;;;;1999.90;999.90;;;;;;;20.54;100.00;94877.53;5063796;28;20239;-52
2023/10/14 07:45:52;;;;;;;1999.90;999.90;;;;;;;20.60;100.00;94878.38;5064195;28;20196;-51
2023/10/14 07:48:19;;;;;;;1999.90;999.90;;;;;;;20.56;100.00;94872.28;5063665;28;20254;-49
2023/10/14 07:50:47;;;;;;;1999.90;999.90;;;;;;;20.44;100.00;94881.66;5063530;28;20173;-52
2023/10/14 07:53:14;;;;;;;1999.90;999.90;;;;;;;20.38;100.00;94872.47;5063638;28;20189;-50
2023/10/14 07:55:43;;;;;;;1999.90;999.90;;;;;;;20.42;100.00;94873.03;5063551;28;20217;-48
2023/10/14 07:58:10;;;;;;;1999.90;999.90;;;;;;;20.41;100.00;94893.72;5064127;28;20190;-53
2023/10/14 08:00:41;;;;;;;1999.90;999.90;;;;;;;20.39;100.00;94890.66;5064009;28;20169;-49
